Nearby METAR Reports

 

ENRY - Rygge (nor-Afb), Norway
Distance from station: SØ 12km
Oppdatert: 22/02/2018 07:20
Overskyet
Overskyet
 Vind fra V
Vind: V 9 km/h
Temperatur: -4°C
Wind Chill: -8°C
Duggpunkt: -5°C
Fuktighet: 93%
Barometer: 1030 hPa
Clouds: Overskyet
Visibility: 10 km
Cloud details: Overskyet 213 m
2018/02/22 06:20 ENRY 220620Z AUTO 28005KT 9999NDV OVC007/// M04/M05 Q1030
ENTO - Torp (civ/Nor-Af, Norway
Distance from station: SV 34km
Oppdatert: 22/02/2018 07:20
Overskyet
Overskyet
 Vind fra varies
Vind: varies 4 km/h
Temperatur: -3°C
Duggpunkt: -4°C
Fuktighet: 93%
Barometer: 1029 hPa
Clouds: Overskyet
Visibility: 10 km
Cloud details: Overskyet 244 m
2018/02/22 06:20 ENTO 220620Z VRB02KT 9999 OVC008 M03/M04 Q1029
 
ENNO - Notodden, Norway
Distance from station: V 80km
Oppdatert: 22/02/2018 06:50
Hovedsaklig skyet
Hovedsaklig skyet
 Vind fra VNV
Vind: VNV 6 km/h
Temperatur: -10°C
Duggpunkt: -11°C
Fuktighet: 92%
Barometer: 1031 hPa
Clouds: Hovedsaklig skyet
Visibility: 10 km
Cloud details: Hovedsaklig skyet 183 m
2018/02/22 05:50 ENNO 220550Z 29003KT 9999 BKN006 M10/M11 Q1031
ENGM - Oslo/Gardermoen, Norway
Distance from station: NNØ 88km
Oppdatert: 22/02/2018 07:20

 Vind fra varies
Vind: varies 2 km/h
Visibility: 1 km
2018/02/22 06:20 ENGM 220620Z VRB01KT 1300 700N R19R/1800U R01R/P2000N BR OVC002 M09/M10 Q1028 TEMPO 3000 BKN007
 
ESOK - Karlstad North, Sweden
Distance from station: Ø 153km
Oppdatert: 22/02/2018 07:20
Overskyet
Overskyet
 Vind fra SV
Vind: SV 4 km/h
Temperatur: -5°C
Duggpunkt: -6°C
Fuktighet: 93%
Barometer: 1028 hPa
Clouds: Overskyet
Visibility: 10 km
Cloud details: Overskyet 305 m
2018/02/22 06:20 ESOK 220620Z 22002KT 9999 OVC010 M05/M06 Q1028
ESST - Torsby, Sweden
Distance from station: ØNØ 154km
Oppdatert: 22/02/2018 07:20
Overskyet
Overskyet
 Vind fra varies
Vind: varies 2 km/h
Temperatur: -5°C
Duggpunkt: -6°C
Fuktighet: 93%
Barometer: 1028 hPa
Clouds: Overskyet
Visibility: 10 km
Cloud details: Overskyet 366 m
2018/02/22 06:20 ESST 220620Z AUTO VRB01KT 9999 OVC012/// M05/M06 Q1028
 
ESGT - Trollhattan (pvt, Sweden
Distance from station: SØ 159km
Oppdatert: 22/02/2018 07:20
Hovedsaklig skyet
Hovedsaklig skyet
 Vind fra ØSØ
Vind: ØSØ 4 km/h
Temperatur: -7°C
Duggpunkt: -8°C
Fuktighet: 93%
Barometer: 1030 hPa
Clouds: Hovedsaklig skyet
Visibility: 10 km
Cloud details: Hovedsaklig skyet 579 m
2018/02/22 06:20 ESGT 220620Z 120002KT 9999 BKN019 M07/M08 Q1030
ESIB - Satenas (swe-Afb, Sweden
Distance from station: SØ 164km
Oppdatert: 22/02/2018 07:20
Hovedsaklig skyet
Hovedsaklig skyet
 Vind fra SV
Vind: SV 7 km/h
Temperatur: -6°C
Wind Chill: -10°C
Duggpunkt: -7°C
Fuktighet: 93%
Barometer: 1029 hPa
Clouds: Hovedsaklig skyet
Visibility: 10 km
Cloud details: Hovedsaklig skyet 579 m
2018/02/22 06:20 ESIB 220620Z 23004KT 9999 BKN019 M06/M07 Q1029